Cuervo, New Mexico
Current Conditions -  °F | °C
As of 2:09 AM on Wednesday 22 Oct 2014 (Local Time) from KTCC Reporting Station
Overcast Overcast  
Wind Chill: 60°   Ceiling: 1400
Heat Index: 60°   Visibility: 10mi
Dew Point: 55°   Wind: 3mph
Humidity: 83%   Direction: 270°W
Pressure: 30.07"   Gusts: NA
Location:  35.03°N, 104.41°W
Report Text: KTCC 220809Z AUTO 27003KT 10SM OVC014 16/13 A3007 RMK AO2 T01560128
Loading
Personal Weather Stations






























Interactive Weather Map
Tropical Storm Tracking
New forecast layout! Learn more

10-Day Weather Forecast

Advertisements
Track Severe Weather on mobile